Time;durP1;ratioP1;P1;durP2;ratioP2;P2;SDS_P1;SDS_P2;PMS_P1;PMS_P2;Temp;Humidity;BMP_temperature;BMP_pressure;BME280_temperature;BME280_humidity;BME280_pressure;Samples;Min_cycle;Max_cycle;Signal;HPM_P1;HPM_P2
2021/01/31 00:01:00;;;;;;;31.83;15.43;;;;;;;1.58;63.66;100591.78;5015723;28;20137;-82
2021/01/31 00:03:29;;;;;;;32.90;15.15;;;;;;;1.54;63.58;100589.97;5015916;28;20029;-82
2021/01/31 00:05:58;;;;;;;32.38;16.40;;;;;;;1.52;63.94;100596.94;5016931;28;20103;-81
2021/01/31 00:08:26;;;;;;;39.15;16.58;;;;;;;1.54;64.12;100599.56;5017469;28;20120;-82
2021/01/31 00:10:55;;;;;;;30.58;15.68;;;;;;;1.52;64.15;100609.09;5014547;28;20037;-81
2021/01/31 00:13:24;;;;;;;36.67;17.25;;;;;;;1.50;63.56;100606.47;5017130;28;20038;-82
2021/01/31 00:15:52;;;;;;;32.72;15.73;;;;;;;1.46;63.32;100620.34;5016081;28;20481;-82
2021/01/31 00:18:23;;;;;;;35.47;16.63;;;;;;;1.46;63.95;100617.75;5015423;28;20053;-82
2021/01/31 00:20:52;;;;;;;36.20;17.92;;;;;;;1.40;64.02;100622.88;5015922;28;20029;-82
2021/01/31 00:23:19;;;;;;;35.03;17.92;;;;;;;1.40;64.16;100620.25;5016269;28;20018;-82
2021/01/31 00:25:46;;;;;;;33.88;16.17;;;;;;;1.39;63.87;100621.97;5016434;28;20037;-82
2021/01/31 00:28:14;;;;;;;35.47;16.92;;;;;;;1.37;63.76;100623.72;5016714;28;20473;-81
2021/01/31 00:30:45;;;;;;;36.05;18.40;;;;;;;1.34;63.60;100622.78;5016914;28;20026;-83
2021/01/31 00:33:15;;;;;;;40.08;18.20;;;;;;;1.36;64.04;100623.66;5015694;28;20121;-82
2021/01/31 00:35:42;;;;;;;36.17;16.80;;;;;;;1.33;63.49;100631.47;5015735;28;20021;-83
2021/01/31 00:38:11;;;;;;;35.22;16.00;;;;;;;1.33;63.32;100634.06;5015555;28;20030;-81
2021/01/31 00:40:37;;;;;;;35.38;16.70;;;;;;;1.26;63.58;100633.13;5015541;28;20030;-81
2021/01/31 00:43:05;;;;;;;33.83;17.27;;;;;;;1.25;63.33;100636.59;5014745;28;20436;-81
2021/01/31 00:45:32;;;;;;;38.97;18.17;;;;;;;1.18;63.32;100640.81;5015867;28;20026;-82
2021/01/31 00:47:58;;;;;;;38.53;17.23;;;;;;;1.16;63.27;100642.53;5015216;28;20026;-82
2021/01/31 00:53:00;;;;;;;37.72;17.70;;;;;;;1.09;63.18;100645.91;5052710;28;20052;-80
2021/01/31 00:55:27;;;;;;;38.63;18.25;;;;;;;1.07;63.10;100658.03;5054071;28;20472;-80
2021/01/31 00:57:54;;;;;;;41.75;19.10;;;;;;;1.00;63.52;100659.69;5053868;28;20079;-81
2021/01/31 01:00:24;;;;;;;44.42;19.95;;;;;;;0.94;63.56;100660.44;5054616;28;20032;-81
2021/01/31 01:02:51;;;;;;;40.40;18.38;;;;;;;0.90;63.71;100663.00;5034045;28;20552;-81
2021/01/31 01:05:20;;;;;;;39.08;18.23;;;;;;;0.94;63.97;100664.81;5034442;28;20036;-81
2021/01/31 01:07:46;;;;;;;42.78;19.25;;;;;;;0.87;64.08;100661.19;5034161;28;20034;-80
2021/01/31 01:10:15;;;;;;;37.63;18.40;;;;;;;0.88;63.62;100660.34;5034211;28;20033;-80
2021/01/31 01:12:42;;;;;;;39.03;18.40;;;;;;;0.84;63.67;100661.16;5033740;28;20041;-80
2021/01/31 01:15:11;;;;;;;42.10;19.88;;;;;;;0.82;63.99;100664.59;5033714;28;20033;-80
2021/01/31 01:17:38;;;;;;;42.55;19.60;;;;;;;0.53;65.12;100668.44;5033673;28;20492;-80
2021/01/31 01:20:06;;;;;;;39.00;17.23;;;;;;;0.44;65.48;100671.75;5033640;28;20030;-80
2021/01/31 01:22:33;;;;;;;41.60;18.88;;;;;;;0.39;64.92;100673.41;5033950;28;20030;-81
2021/01/31 01:25:02;;;;;;;47.55;19.20;;;;;;;0.37;65.42;100669.88;5033798;28;20033;-81
2021/01/31 01:27:30;;;;;;;36.58;17.38;;;;;;;0.38;64.81;100670.78;5033461;28;20029;-81
2021/01/31 01:29:58;;;;;;;49.42;19.85;;;;;;;0.36;65.27;100669.84;5033474;28;20025;-81
2021/01/31 01:32:25;;;;;;;42.05;18.27;;;;;;;0.37;65.12;100666.41;5033323;28;20116;-81
2021/01/31 01:34:51;;;;;;;42.17;18.92;;;;;;;0.35;64.61;100658.56;5033426;28;20034;-81
2021/01/31 01:37:19;;;;;;;41.33;19.15;;;;;;;0.34;65.28;100658.50;5033367;28;20471;-81
2021/01/31 01:39:45;;;;;;;39.63;18.25;;;;;;;0.30;65.05;100663.69;5033291;28;20025;-81
2021/01/31 01:42:13;;;;;;;39.92;18.10;;;;;;;0.29;64.98;100654.09;5033664;28;20524;-81
2021/01/31 01:44:40;;;;;;;44.15;18.75;;;;;;;0.29;64.75;100653.22;5033670;28;20053;-81
2021/01/31 01:47:16;;;;;;;42.08;19.88;;;;;;;0.30;65.33;100657.59;5033310;28;20030;-81
2021/01/31 01:49:45;;;;;;;41.97;19.20;;;;;;;0.24;65.00;100660.94;5033366;28;20040;-80
2021/01/31 01:52:23;;;;;;;39.63;18.48;;;;;;;0.22;65.72;100657.44;5033149;28;20034;-81
2021/01/31 01:54:59;;;;;;;43.50;19.77;;;;;;;0.25;65.51;100649.69;5033444;28;20113;-81
2021/01/31 01:57:30;;;;;;;40.55;19.15;;;;;;;0.21;65.49;100646.97;5033244;28;20025;-81
2021/01/31 01:59:57;;;;;;;40.88;17.25;;;;;;;0.20;64.79;100653.94;5033386;28;20022;-81
2021/01/31 02:02:32;;;;;;;44.35;19.63;;;;;;;0.19;65.21;100646.97;5033153;28;20030;-81
2021/01/31 02:05:03;;;;;;;41.10;20.20;;;;;;;0.17;65.15;100648.66;5033697;28;20112;-81
2021/01/31 02:07:30;;;;;;;40.93;17.83;;;;;;;0.14;64.89;100649.47;5033157;28;20021;-81
2021/01/31 02:09:57;;;;;;;34.80;17.02;;;;;;;0.11;64.95;100643.31;5033251;28;20022;-81
2021/01/31 02:12:26;;;;;;;45.03;18.88;;;;;;;0.10;65.08;100646.78;5032915;28;20033;-81
2021/01/31 02:14:55;;;;;;;39.90;17.67;;;;;;;0.08;65.61;100643.28;5032945;28;20036;-81
2021/01/31 02:23:44;;;;;;;44.45;19.30;;;;;;;0.09;65.14;100640.69;5111418;27;20706;-81
2021/01/31 02:26:14;;;;;;;35.42;15.65;;;;;;;0.06;64.91;100642.34;5111510;28;20386;-81
2021/01/31 02:34:25;;;;;;;34.67;16.00;;;;;;;0.02;66.05;100649.22;5091201;28;20396;-81
2021/01/31 02:40:13;;;;;;;35.25;17.38;;;;;;;-0.03;65.95;100649.13;5090817;27;20393;-81
2021/01/31 02:42:48;;;;;;;44.35;19.60;;;;;;;-0.06;65.77;100641.28;5052569;28;20380;-82
2021/01/31 02:45:25;;;;;;;38.72;18.17;;;;;;;-0.03;65.13;100640.44;5051033;28;20044;-81
2021/01/31 02:51:01;;;;;;;39.70;18.33;;;;;;;-0.08;65.39;100629.06;5086895;27;20405;-81
2021/01/31 02:53:33;;;;;;;45.00;18.33;;;;;;;-0.13;65.40;100622.88;5071088;28;20044;-81
2021/01/31 02:58:55;;;;;;;38.50;18.17;;;;;;;-0.17;65.31;100627.16;5050905;28;20940;-82
2021/01/31 03:04:15;;;;;;;34.40;17.20;;;;;;;-0.19;65.13;100628.84;5091188;27;20587;-81
2021/01/31 03:06:49;;;;;;;37.40;16.92;;;;;;;-0.21;65.15;100617.53;5070798;28;20036;-81
2021/01/31 03:09:40;;;;;;;43.00;18.83;;;;;;;-0.21;65.68;100620.13;5070673;28;20124;-81
2021/01/31 03:12:12;;;;;;;36.85;16.60;;;;;;;-0.23;65.37;100616.63;5056917;28;20067;-81
2021/01/31 03:14:41;;;;;;;;;;;;;;;-0.10;65.36;100622.94;5051256;28;20068;-81
2021/01/31 03:17:18;;;;;;;42.13;17.10;;;;;;;-0.22;65.51;100620.97;5050557;28;19916;-81
2021/01/31 03:19:51;;;;;;;43.28;19.63;;;;;;;-0.27;65.30;100627.81;5050808;28;20495;-81
2021/01/31 03:22:23;;;;;;;;;;;;;;;-0.14;65.72;100639.34;5050791;28;20047;-81
2021/01/31 03:24:57;;;;;;;38.33;16.33;;;;;;;-0.30;65.38;100632.94;5050778;28;20360;-81
2021/01/31 03:27:31;;;;;;;39.67;18.15;;;;;;;-0.29;65.10;100642.53;5050401;28;20032;-81
2021/01/31 03:29:58;;;;;;;48.33;20.40;;;;;;;-0.37;65.47;100643.22;5050573;28;20033;-81
2021/01/31 03:32:34;;;;;;;41.65;18.73;;;;;;;-0.33;65.31;100632.03;5050213;28;20376;-81
2021/01/31 03:35:08;;;;;;;38.45;17.33;;;;;;;-0.37;65.62;100639.75;5050778;28;20028;-81
2021/01/31 03:37:39;;;;;;;38.58;17.02;;;;;;;-0.42;65.64;100638.78;5050300;28;20032;-81
2021/01/31 03:40:08;;;;;;;37.47;16.92;;;;;;;-0.44;65.39;100641.34;5049925;28;20095;-81
2021/01/31 03:42:35;;;;;;;40.35;16.83;;;;;;;-0.50;66.15;100630.78;5049991;28;20530;-81
2021/01/31 03:45:06;;;;;;;35.05;16.88;;;;;;;-0.47;65.93;100629.97;5050230;28;20033;-81
2021/01/31 03:47:46;;;;;;;42.58;17.40;;;;;;;-0.48;66.54;100642.13;5050087;28;20053;-81
2021/01/31 03:50:13;;;;;;;40.58;18.05;;;;;;;-0.52;66.13;100635.09;5050127;28;20362;-81
2021/01/31 03:52:40;;;;;;;41.88;17.98;;;;;;;-0.50;65.36;100638.59;5050147;28;20025;-81
2021/01/31 03:55:08;;;;;;;39.25;17.17;;;;;;;-0.52;65.93;100641.19;5050140;28;20025;-81
2021/01/31 03:57:43;;;;;;;39.22;16.88;;;;;;;-0.48;65.67;100639.53;5050233;28;20364;-81
2021/01/31 04:00:19;;;;;;;44.15;19.73;;;;;;;-0.52;65.73;100648.13;5050065;28;20036;-81
2021/01/31 04:02:54;;;;;;;42.15;17.58;;;;;;;-0.52;66.00;100648.13;5049510;28;20060;-81
2021/01/31 04:05:22;;;;;;;35.70;16.25;;;;;;;-0.56;65.52;100638.47;5050321;28;20017;-81
2021/01/31 04:07:52;;;;;;;35.47;16.38;;;;;;;-0.57;65.88;100641.94;5049772;28;20120;-81
2021/01/31 04:10:19;;;;;;;41.70;18.70;;;;;;;-0.56;65.46;100643.66;5049849;28;20029;-81
2021/01/31 04:12:51;;;;;;;43.55;18.13;;;;;;;-0.57;65.65;100642.81;5049549;28;20502;-81
2021/01/31 04:15:29;;;;;;;38.78;17.17;;;;;;;-0.53;66.04;100641.16;5037373;28;20566;-81
2021/01/31 04:17:56;;;;;;;37.85;16.73;;;;;;;-0.58;65.36;100650.59;5036239;28;20036;-81
2021/01/31 04:20:22;;;;;;;41.00;18.50;;;;;;;-0.60;65.53;100647.91;5036419;28;20053;-81
2021/01/31 04:22:49;;;;;;;33.75;16.08;;;;;;;-0.61;65.66;100646.19;5036700;28;20037;-81
2021/01/31 04:25:16;;;;;;;40.55;18.20;;;;;;;-0.65;65.59;100649.53;5036415;28;20036;-81
2021/01/31 04:27:42;;;;;;;32.75;15.57;;;;;;;-0.62;65.57;100648.72;5036145;28;20469;-81
2021/01/31 04:30:10;;;;;;;41.30;19.13;;;;;;;-0.66;65.68;100642.59;5036262;28;20086;-81
2021/01/31 04:32:37;;;;;;;41.13;18.45;;;;;;;-0.66;66.28;100643.47;5036141;28;20175;-81
2021/01/31 04:35:06;;;;;;;37.60;17.17;;;;;;;-0.64;65.94;100646.09;5035809;28;20116;-81
2021/01/31 04:37:34;;;;;;;40.67;17.20;;;;;;;-0.64;65.90;100645.25;5035986;28;20029;-81
2021/01/31 04:40:01;;;;;;;32.47;15.27;;;;;;;-0.66;65.61;100653.03;5035764;28;20025;-81
2021/01/31 04:42:27;;;;;;;37.38;17.73;;;;;;;-0.66;65.55;100651.28;5035464;28;20030;-81
2021/01/31 04:44:54;;;;;;;41.38;18.88;;;;;;;-0.69;65.59;100645.13;5035869;28;20508;-81
2021/01/31 04:53:08;;;;;;;33.58;15.85;;;;;;;-0.67;66.00;100641.72;5031346;28;20401;-81
2021/01/31 04:58:54;;;;;;;34.63;16.77;;;;;;;-0.66;65.47;100648.69;5091081;27;20404;-81
2021/01/31 05:01:26;;;;;;;40.20;17.55;;;;;;;-0.70;65.29;100656.38;5063829;28;20495;-81
2021/01/31 05:03:59;;;;;;;43.92;18.35;;;;;;;-0.69;65.14;100666.81;5050833;28;20087;-81
2021/01/31 05:06:31;;;;;;;44.42;18.02;;;;;;;-0.74;65.12;100670.16;5051056;28;20056;-81
2021/01/31 05:08:58;;;;;;;36.63;18.05;;;;;;;-0.75;65.13;100658.00;5051700;28;20033;-81
2021/01/31 05:11:32;;;;;;;41.33;18.08;;;;;;;-0.77;65.35;100663.16;5055871;28;20030;-81
2021/01/31 05:14:08;;;;;;;32.70;14.93;;;;;;;-0.78;65.49;100657.94;5052884;28;20029;-81
2021/01/31 05:16:34;;;;;;;30.55;14.63;;;;;;;-0.81;65.21;100658.72;5050406;28;20040;-81
2021/01/31 05:19:09;;;;;;;36.45;15.88;;;;;;;-0.84;65.76;100659.53;5050612;28;20055;-81
2021/01/31 05:21:36;;;;;;;34.97;16.38;;;;;;;-0.88;65.66;100662.03;5050820;28;20025;-81
2021/01/31 05:24:06;;;;;;;37.55;16.20;;;;;;;-0.85;65.85;100656.91;5050439;28;20110;-81
2021/01/31 05:26:38;;;;;;;38.13;16.70;;;;;;;-0.82;65.71;100656.97;5050586;28;20025;-80
2021/01/31 05:29:12;;;;;;;34.88;16.23;;;;;;;-0.81;65.17;100653.50;5050415;28;20051;-82
2021/01/31 05:31:40;;;;;;;35.88;15.88;;;;;;;-0.85;65.28;100647.38;5050226;28;20177;-81
2021/01/31 05:34:07;;;;;;;40.72;17.08;;;;;;;-0.90;65.25;100659.38;5050355;28;20070;-81
2021/01/31 05:36:34;;;;;;;34.78;16.25;;;;;;;-0.90;65.59;100661.97;5050244;28;20021;-81
2021/01/31 05:39:02;;;;;;;38.67;18.70;;;;;;;-0.89;64.92;100644.66;5049931;28;20025;-81
2021/01/31 05:41:47;;;;;;;41.00;17.63;;;;;;;-0.81;65.14;100643.09;5050369;28;20032;-82
2021/01/31 05:46:59;;;;;;;37.90;17.67;;;;;;;-0.90;65.34;100654.19;5091166;27;20914;-81
2021/01/31 05:49:46;;;;;;;39.28;16.50;;;;;;;-0.84;64.53;100656.06;5070749;28;20048;-81
2021/01/31 05:52:29;;;;;;;34.38;15.43;;;;;;;-0.85;64.96;100656.91;5057141;28;20362;-81
2021/01/31 05:54:57;;;;;;;31.88;15.02;;;;;;;-0.96;64.85;100656.63;5049676;28;20119;-81
2021/01/31 05:57:30;;;;;;;33.72;16.98;;;;;;;-0.97;65.07;100649.69;5050923;28;20097;-81
2021/01/31 06:00:00;;;;;;;38.15;17.85;;;;;;;-1.01;64.96;100656.53;5050425;28;20038;-81
2021/01/31 06:02:29;;;;;;;32.45;16.65;;;;;;;-0.99;64.92;100648.78;5050556;28;20103;-81
2021/01/31 06:08:00;;;;;;;31.70;14.85;;;;;;;-0.92;64.69;100660.19;5091038;27;20910;-81
2021/01/31 06:10:27;;;;;;;33.10;15.05;;;;;;;-1.01;64.66;100659.16;5071180;28;20079;-82
2021/01/31 06:13:04;;;;;;;37.03;16.67;;;;;;;-0.95;64.63;100661.00;5051456;28;20079;-82
2021/01/31 06:15:42;;;;;;;33.33;16.08;;;;;;;-1.02;64.83;100669.53;5050646;28;20392;-82
2021/01/31 06:21:16;;;;;;;43.50;18.60;;;;;;;-1.04;64.66;100663.38;5071038;28;20365;-82
2021/01/31 06:23:50;;;;;;;37.03;15.95;;;;;;;-1.04;64.74;100658.19;5071236;28;20032;-82
2021/01/31 06:26:27;;;;;;;31.92;14.57;;;;;;;-1.01;64.83;100655.66;5071002;28;20056;-82
2021/01/31 06:29:06;;;;;;;39.42;17.05;;;;;;;-1.02;64.70;100657.38;5070539;28;20029;-81
2021/01/31 06:31:44;;;;;;;38.95;16.92;;;;;;;-1.02;65.42;100653.91;5070549;28;20468;-82
2021/01/31 06:34:11;;;;;;;37.40;17.15;;;;;;;-1.03;64.29;100646.94;5070622;28;20036;-82
2021/01/31 06:39:39;;;;;;;40.58;18.02;;;;;;;-0.98;64.46;100650.53;5111333;27;20358;-82
2021/01/31 06:42:25;;;;;;;40.75;17.15;;;;;;;-1.01;64.84;100653.94;5111649;28;20036;-82
2021/01/31 06:47:59;;;;;;;41.17;18.60;;;;;;;-1.03;64.79;100658.22;5091222;27;20400;-81
2021/01/31 06:50:39;;;;;;;38.55;17.23;;;;;;;-1.03;64.56;100647.81;5070832;28;20395;-81
2021/01/31 06:53:27;;;;;;;40.13;17.90;;;;;;;-1.00;64.70;100647.00;5050813;28;20472;-81
2021/01/31 06:59:21;;;;;;;35.63;16.20;;;;;;;-1.00;64.67;100642.69;5091155;28;20418;-81
2021/01/31 07:05:02;;;;;;;37.03;17.55;;;;;;;-1.00;64.56;100647.91;5090994;28;20419;-81
2021/01/31 07:07:49;;;;;;;42.90;17.75;;;;;;;-1.02;64.68;100633.97;5070914;28;20051;-81
2021/01/31 07:13:36;;;;;;;40.55;17.45;;;;;;;-1.03;65.21;100645.22;5090785;27;20397;-81
2021/01/31 07:16:29;;;;;;;41.53;18.00;;;;;;;-1.08;64.55;100649.44;5070663;28;20499;-82
2021/01/31 07:24:44;;;;;;;35.80;16.60;;;;;;;-1.06;64.11;100681.56;5090919;27;20393;-81
2021/01/31 07:27:23;;;;;;;40.38;16.83;;;;;;;-1.03;64.03;100679.03;5070811;28;20037;-82
2021/01/31 07:30:09;;;;;;;34.03;16.33;;;;;;;-1.05;64.17;100680.69;5070333;28;20043;-82
2021/01/31 07:32:50;;;;;;;30.92;15.00;;;;;;;-1.02;64.21;100693.78;5054059;28;20404;-81
2021/01/31 07:35:21;;;;;;;38.38;16.98;;;;;;;-1.05;63.75;100700.63;5050746;28;20121;-81
2021/01/31 07:37:53;;;;;;;35.63;15.90;;;;;;;-1.03;64.36;100709.34;5050949;28;20365;-81
2021/01/31 07:40:21;;;;;;;38.35;16.75;;;;;;;-1.04;63.99;100707.59;5050967;28;20033;-81
2021/01/31 07:42:54;;;;;;;38.28;17.35;;;;;;;-1.02;63.94;100706.78;5050191;28;20033;-82
2021/01/31 07:45:24;;;;;;;34.67;16.27;;;;;;;-1.02;63.80;100712.00;5049339;28;20029;-82
2021/01/31 07:48:10;;;;;;;35.50;16.75;;;;;;;-1.01;63.93;100702.47;5050276;28;20108;-82
2021/01/31 07:50:39;;;;;;;34.38;15.77;;;;;;;-1.01;64.31;100702.47;5050224;28;20156;-83
2021/01/31 07:53:07;;;;;;;34.13;16.58;;;;;;;-1.02;64.17;100695.53;5049975;28;20033;-82
2021/01/31 07:55:39;;;;;;;36.42;16.35;;;;;;;-0.98;64.83;100707.75;5050083;28;20120;-82
2021/01/31 08:00:59;;;;;;;32.60;15.35;;;;;;;-0.96;64.19;100706.03;5088110;27;20915;-81
2021/01/31 08:09:02;;;;;;;35.20;15.98;;;;;;;-0.88;64.99;100698.47;5091019;27;20392;-83
2021/01/31 08:14:09;;;;;;;39.05;18.30;;;;;;;-0.81;65.30;100708.16;5090999;27;20405;-82
2021/01/31 08:16:53;;;;;;;39.50;17.33;;;;;;;-0.79;65.51;100708.19;5070924;28;20033;-82
2021/01/31 08:43:52;;;;;;;45.05;19.75;;;;;;;-0.39;66.17;100672.69;5090947;27;20397;-81
2021/01/31 08:49:09;;;;;;;37.83;17.10;;;;;;;-0.35;65.72;100664.97;5091116;28;20915;-82
2021/01/31 08:51:38;;;;;;;46.78;19.05;;;;;;;-0.36;66.20;100657.16;5063264;28;20477;-82
2021/01/31 08:54:23;;;;;;;34.22;17.70;;;;;;;-0.21;65.95;100656.59;5049253;28;20407;-82
2021/01/31 08:56:56;;;;;;;41.67;17.20;;;;;;;-0.19;66.24;100644.47;5050574;28;20025;-82
2021/01/31 08:59:27;;;;;;;32.90;15.73;;;;;;;-0.13;66.44;100642.00;5051000;28;20094;-82
2021/01/31 09:02:24;;;;;;;45.70;19.95;;;;;;;-0.02;66.71;100642.22;5050337;28;20061;-82
2021/01/31 09:07:37;;;;;;;38.15;17.15;;;;;;;0.15;67.16;100646.03;5131765;27;20395;-82
2021/01/31 09:12:47;;;;;;;41.55;20.38;;;;;;;0.35;66.96;100629.00;5073446;27;20409;-81
2021/01/31 09:18:06;;;;;;;40.72;18.95;;;;;;;0.54;66.44;100633.69;5091299;27;20389;-82
2021/01/31 09:20:32;;;;;;;39.20;18.52;;;;;;;0.53;66.46;100631.94;5071303;28;20033;-82
2021/01/31 09:23:05;;;;;;;37.95;19.08;;;;;;;0.55;66.84;100627.63;5050926;28;20456;-81
2021/01/31 09:25:36;;;;;;;40.78;18.10;;;;;;;0.62;66.92;100634.72;5050916;28;20033;-81
2021/01/31 09:28:17;;;;;;;41.38;19.63;;;;;;;0.70;66.94;100629.63;5050564;28;20029;-81
2021/01/31 09:30:44;;;;;;;36.40;17.65;;;;;;;0.77;66.92;100635.81;5050805;28;20034;-81
2021/01/31 09:33:37;;;;;;;33.00;16.52;;;;;;;0.88;67.10;100626.44;5050665;28;20040;-81
2021/01/31 09:39:05;;;;;;;37.90;18.77;;;;;;;0.99;66.95;100625.75;5090979;27;20405;-81
2021/01/31 09:41:32;;;;;;;33.08;16.20;;;;;;;1.11;67.10;100632.03;5063985;28;20041;-81
2021/01/31 09:44:03;;;;;;;35.42;17.77;;;;;;;1.23;67.25;100618.25;5050487;28;20056;-81
2021/01/31 09:46:30;;;;;;;38.40;18.13;;;;;;;1.29;67.47;100615.75;5050839;28;20461;-81
2021/01/31 09:51:44;;;;;;;36.00;16.88;;;;;;;1.44;66.75;100609.84;5108549;22;20451;-80
2021/01/31 09:54:31;;;;;;;36.90;16.45;;;;;;;1.55;66.57;100614.38;5095642;28;20349;-80
2021/01/31 09:57:02;;;;;;;29.70;14.88;;;;;;;1.58;66.83;100610.06;5092167;28;20498;-80
2021/01/31 09:59:32;;;;;;;35.05;17.20;;;;;;;1.67;66.90;100600.56;5091896;28;20039;-80
2021/01/31 10:02:08;;;;;;;38.97;16.75;;;;;;;1.82;66.73;100606.00;5091228;28;20047;-80
2021/01/31 10:04:36;;;;;;;31.80;15.80;;;;;;;1.81;67.07;100603.34;5091029;28;20341;-80
2021/01/31 10:07:13;;;;;;;35.30;16.92;;;;;;;1.91;66.93;100590.41;5091089;28;20078;-80
2021/01/31 10:09:42;;;;;;;30.90;14.85;;;;;;;1.79;66.82;100592.88;5090731;28;20028;-80
2021/01/31 10:12:14;;;;;;;27.33;14.38;;;;;;;1.96;66.72;100598.31;5090860;28;20047;-81
2021/01/31 10:20:35;;;;;;;31.63;16.52;;;;;;;2.23;65.97;100589.91;5110908;27;20343;-81
2021/01/31 10:25:55;;;;;;;32.92;16.92;;;;;;;2.39;65.94;100580.47;5091288;27;20405;-81
2021/01/31 10:28:31;;;;;;;32.60;16.25;;;;;;;2.52;66.25;100578.84;5071174;28;20037;-81
2021/01/31 10:30:58;;;;;;;29.77;15.93;;;;;;;2.51;65.86;100577.06;5068768;28;20028;-81
2021/01/31 10:33:46;;;;;;;30.85;16.50;;;;;;;2.62;64.32;100568.44;5051142;28;20116;-81
2021/01/31 10:41:52;;;;;;;28.98;15.40;;;;;;;2.90;65.52;100565.19;5081732;28;20401;-81
2021/01/31 10:47:00;;;;;;;29.38;15.82;;;;;;;3.22;66.02;100550.53;5111538;27;20359;-82
2021/01/31 10:49:26;;;;;;;31.90;17.02;;;;;;;3.38;66.25;100551.50;5111071;28;20100;-82
2021/01/31 10:51:52;;;;;;;33.22;17.10;;;;;;;3.38;65.59;100546.25;5110890;28;20036;-82
2021/01/31 10:54:22;;;;;;;34.58;17.05;;;;;;;3.46;64.34;100541.06;5111066;28;20066;-82
2021/01/31 10:56:49;;;;;;;32.28;16.02;;;;;;;3.40;65.06;100539.25;5110996;28;20032;-82
2021/01/31 10:59:16;;;;;;;30.65;16.23;;;;;;;3.49;65.41;100533.19;5111209;28;20563;-82
2021/01/31 11:01:44;;;;;;;32.03;17.40;;;;;;;3.55;64.75;100536.72;5110719;28;20039;-82
2021/01/31 11:04:10;;;;;;;33.03;17.05;;;;;;;3.60;64.74;100530.63;5111484;28;20028;-82
2021/01/31 11:06:37;;;;;;;29.55;15.45;;;;;;;3.73;65.24;100527.19;5110806;28;20078;-82
2021/01/31 11:09:04;;;;;;;26.33;14.80;;;;;;;3.84;64.68;100524.59;5110811;28;20386;-82
2021/01/31 11:11:31;;;;;;;29.70;15.55;;;;;;;3.92;63.63;100516.75;5110727;28;20457;-83
2021/01/31 11:13:57;;;;;;;28.65;15.00;;;;;;;3.87;64.21;100501.88;5110961;28;20103;-83
2021/01/31 11:16:24;;;;;;;28.00;14.65;;;;;;;3.87;63.85;100499.25;5110679;28;20070;-83
2021/01/31 11:18:50;;;;;;;28.63;16.00;;;;;;;3.94;64.05;100494.00;5110772;28;20028;-83
2021/01/31 11:21:20;;;;;;;30.05;14.02;;;;;;;3.97;63.21;100483.56;5110986;28;20027;-82
2021/01/31 11:23:47;;;;;;;29.10;15.23;;;;;;;3.97;63.50;100484.41;5110690;28;20031;-82
2021/01/31 11:26:13;;;;;;;24.80;14.70;;;;;;;3.95;63.63;100475.69;5110289;28;20046;-82
2021/01/31 11:28:40;;;;;;;27.45;15.70;;;;;;;3.98;63.57;100475.69;5110411;28;20027;-82
2021/01/31 11:31:06;;;;;;;30.40;14.95;;;;;;;4.11;62.84;100476.59;5110606;28;20101;-83
2021/01/31 11:33:32;;;;;;;28.27;14.75;;;;;;;4.15;63.11;100478.31;5110395;28;20027;-83
2021/01/31 11:35:59;;;;;;;30.00;16.77;;;;;;;4.16;63.29;100463.44;5110323;28;20386;-83
2021/01/31 11:38:25;;;;;;;30.27;16.45;;;;;;;4.30;63.39;100452.97;5110289;28;20046;-81
2021/01/31 11:40:52;;;;;;;26.25;14.60;;;;;;;4.38;62.83;100454.69;5110324;28;20059;-82
2021/01/31 11:43:19;;;;;;;26.75;15.35;;;;;;;4.47;62.79;100448.56;5110164;28;20020;-82
2021/01/31 11:45:45;;;;;;;26.88;14.45;;;;;;;4.40;62.31;100438.09;5109906;28;20486;-82
2021/01/31 11:48:11;;;;;;;26.92;15.07;;;;;;;4.47;62.04;100431.97;5110448;28;20106;-83
2021/01/31 11:50:38;;;;;;;28.10;14.57;;;;;;;4.49;61.66;100431.09;5110199;28;20453;-84
2021/01/31 11:53:05;;;;;;;23.33;13.63;;;;;;;4.58;61.43;100424.94;5110815;28;20027;-84
2021/01/31 11:55:32;;;;;;;22.67;13.88;;;;;;;4.61;61.54;100419.72;5110068;28;20489;-83
2021/01/31 11:57:58;;;;;;;28.85;14.73;;;;;;;4.64;61.30;100410.94;5098132;28;20028;-82
2021/01/31 12:00:25;;;;;;;25.42;13.60;;;;;;;4.74;61.36;100406.56;5096571;28;20036;-83
2021/01/31 12:02:53;;;;;;;26.67;14.70;;;;;;;4.87;60.83;100397.72;5096792;28;20040;-82
2021/01/31 12:05:22;;;;;;;23.52;14.13;;;;;;;4.96;60.75;100400.34;5096773;28;20122;-83
2021/01/31 12:07:50;;;;;;;24.77;13.32;;;;;;;5.05;60.28;100391.56;5096441;28;20043;-83
2021/01/31 12:10:18;;;;;;;23.30;12.93;;;;;;;5.07;60.23;100389.81;5096424;28;20056;-83
2021/01/31 12:12:45;;;;;;;23.75;13.43;;;;;;;5.04;60.72;100395.06;5096364;28;20078;-84
2021/01/31 12:15:16;;;;;;;22.40;12.70;;;;;;;5.02;60.29;100391.53;5096160;28;20039;-83
2021/01/31 12:17:42;;;;;;;24.83;14.10;;;;;;;4.98;60.28;100392.44;5096398;28;20024;-84
2021/01/31 12:20:11;;;;;;;22.38;13.32;;;;;;;5.02;60.49;100386.28;5096452;28;20032;-83
2021/01/31 12:22:37;;;;;;;21.65;12.70;;;;;;;5.11;60.46;100386.28;5096010;28;20103;-84
2021/01/31 12:25:06;;;;;;;22.02;12.40;;;;;;;5.14;60.44;100378.34;5095923;28;20368;-82
2021/01/31 12:27:32;;;;;;;23.52;13.63;;;;;;;5.15;59.91;100374.84;5095983;28;20028;-83
2021/01/31 12:29:59;;;;;;;20.52;12.20;;;;;;;5.08;60.24;100365.25;5096369;28;20086;-84
2021/01/31 12:32:28;;;;;;;22.90;13.30;;;;;;;5.16;59.40;100357.38;5095913;28;20032;-83
2021/01/31 12:34:54;;;;;;;24.00;14.52;;;;;;;5.13;59.86;100347.72;5096347;28;20040;-83
2021/01/31 12:37:21;;;;;;;21.83;12.57;;;;;;;5.15;59.46;100340.72;5094996;28;20036;-84
2021/01/31 12:39:47;;;;;;;21.90;12.05;;;;;;;5.23;59.97;100329.31;5095655;28;20024;-84
2021/01/31 12:42:13;;;;;;;19.23;11.60;;;;;;;5.33;59.22;100324.00;5095811;28;20035;-84
2021/01/31 12:44:40;;;;;;;21.75;13.00;;;;;;;5.40;59.14;100318.69;5095729;28;20020;-83
2021/01/31 12:47:09;;;;;;;24.42;12.38;;;;;;;5.41;58.90;100310.78;5095813;28;20107;-84
2021/01/31 12:49:36;;;;;;;23.25;12.90;;;;;;;5.40;59.17;100311.66;5095754;28;20028;-84
2021/01/31 12:52:03;;;;;;;20.38;11.75;;;;;;;5.43;58.53;100303.78;5084057;22;20080;-80
2021/01/31 12:54:29;;;;;;;19.42;11.75;;;;;;;5.40;58.47;100295.91;5035079;28;20037;-80
2021/01/31 12:56:55;;;;;;;19.15;11.88;;;;;;;5.24;58.88;100289.88;5035060;28;20033;-81
2021/01/31 12:59:22;;;;;;;20.67;12.38;;;;;;;5.07;58.75;100284.78;5035133;28;20026;-81
2021/01/31 13:01:48;;;;;;;21.80;12.82;;;;;;;5.12;58.77;100279.47;5035311;28;20033;-81
2021/01/31 13:04:14;;;;;;;19.95;12.07;;;;;;;5.14;58.59;100269.84;5035113;28;20044;-81
2021/01/31 13:06:41;;;;;;;19.63;12.40;;;;;;;5.17;58.75;100272.41;5034782;28;20042;-81
2021/01/31 13:09:07;;;;;;;20.13;11.77;;;;;;;5.19;58.54;100271.53;5033913;28;20027;-81
2021/01/31 13:11:33;;;;;;;21.38;12.52;;;;;;;5.16;58.97;100268.94;5034777;28;20037;-80
2021/01/31 13:14:00;;;;;;;22.42;12.80;;;;;;;5.28;58.67;100269.72;5034985;28;20523;-81
2021/01/31 13:16:26;;;;;;;16.95;11.02;;;;;;;5.41;58.85;100255.63;5034970;28;20029;-81
2021/01/31 13:18:53;;;;;;;21.42;12.45;;;;;;;5.50;58.57;100266.03;5034480;28;20079;-80
2021/01/31 13:21:19;;;;;;;19.25;11.88;;;;;;;5.59;58.08;100261.59;5034447;28;20112;-80
2021/01/31 13:23:45;;;;;;;18.92;11.65;;;;;;;5.67;57.88;100257.16;5034738;28;20373;-80
2021/01/31 13:26:12;;;;;;;16.15;10.73;;;;;;;5.71;57.87;100264.13;5034692;28;20036;-80
2021/01/31 13:28:39;;;;;;;19.27;10.98;;;;;;;5.73;57.91;100256.22;5034593;28;20032;-80
2021/01/31 13:31:05;;;;;;;16.77;10.98;;;;;;;5.69;57.77;100249.25;5034846;28;20480;-80
2021/01/31 13:33:32;;;;;;;21.05;11.95;;;;;;;5.74;57.81;100247.44;5034774;28;20029;-80
2021/01/31 13:35:58;;;;;;;19.65;10.85;;;;;;;5.88;57.70;100244.66;5034504;28;20100;-80
2021/01/31 13:38:25;;;;;;;17.02;10.45;;;;;;;6.00;57.12;100236.69;5034442;28;20092;-80
2021/01/31 13:40:51;;;;;;;17.98;11.10;;;;;;;6.19;57.36;100236.47;5034412;28;20369;-80
2021/01/31 13:43:18;;;;;;;20.88;11.60;;;;;;;6.21;57.14;100232.09;5034288;28;20036;-80